Time;durP1;ratioP1;P1;durP2;ratioP2;P2;SDS_P1;SDS_P2;PMS_P1;PMS_P2;Temp;Humidity;BMP_temperature;BMP_pressure;BME280_temperature;BME280_humidity;BME280_pressure;Samples;Min_cycle;Max_cycle;Signal;HPM_P1;HPM_P2
2021/12/29 00:00:25;;;;;;;12.07;8.27;;;;;;;9.21;94.14;100026.56;5051631;28;20039;-66
2021/12/29 00:02:52;;;;;;;12.00;8.05;;;;;;;9.21;94.00;100037.13;5033486;28;20029;-68
2021/12/29 00:05:17;;;;;;;13.32;8.40;;;;;;;9.21;94.00;100038.00;5033238;28;20029;-67
2021/12/29 00:07:44;;;;;;;12.07;8.27;;;;;;;9.23;94.03;100046.75;5033064;28;20383;-67
2021/12/29 00:10:11;;;;;;;11.18;7.72;;;;;;;9.25;93.79;100046.78;5033089;28;20022;-68
2021/12/29 00:12:41;;;;;;;12.18;7.82;;;;;;;9.24;93.94;100050.28;5033034;28;20025;-68
2021/12/29 00:15:09;;;;;;;10.95;7.13;;;;;;;9.22;94.17;100065.22;5033316;28;20156;-68
2021/12/29 00:17:35;;;;;;;10.95;7.75;;;;;;;9.25;93.88;100079.31;5033059;28;20033;-67
2021/12/29 00:20:01;;;;;;;10.40;6.90;;;;;;;9.25;94.06;100095.13;5032964;28;20061;-67
2021/12/29 00:22:26;;;;;;;9.82;7.40;;;;;;;9.24;93.68;100101.25;5032804;28;20057;-67
2021/12/29 00:24:52;;;;;;;9.45;7.18;;;;;;;9.23;93.96;100109.16;5033072;28;20104;-67
2021/12/29 00:27:17;;;;;;;9.45;7.30;;;;;;;9.21;93.93;100103.88;5032926;28;20029;-67
2021/12/29 00:29:43;;;;;;;12.40;7.22;;;;;;;9.22;93.94;100116.19;5032834;28;20557;-67
2021/12/29 00:32:08;;;;;;;10.95;6.55;;;;;;;9.22;93.96;100110.91;5032960;28;20099;-66
2021/12/29 00:34:34;;;;;;;10.43;6.53;;;;;;;9.20;94.31;100106.50;5032519;28;20022;-67
2021/12/29 00:37:00;;;;;;;9.82;7.40;;;;;;;9.19;94.12;100113.53;5031577;28;20033;-68
2021/12/29 00:39:25;;;;;;;9.90;6.13;;;;;;;9.19;94.23;100112.66;5033012;28;20482;-68
2021/12/29 00:41:51;;;;;;;7.93;6.22;;;;;;;9.17;94.43;100120.56;5033000;28;20021;-67
2021/12/29 00:44:16;;;;;;;7.15;5.18;;;;;;;9.23;94.12;100127.59;5032704;28;20569;-67
2021/12/29 00:46:42;;;;;;;10.23;5.93;;;;;;;9.21;94.50;100135.53;5032815;28;20116;-67
2021/12/29 00:49:08;;;;;;;7.60;5.28;;;;;;;9.18;94.30;100145.16;5042177;28;20060;-67
2021/12/29 00:51:35;;;;;;;8.27;4.93;;;;;;;9.21;94.56;100150.47;5052715;28;20055;-67
2021/12/29 00:54:00;;;;;;;8.55;5.10;;;;;;;9.19;94.26;100145.16;5052734;28;20079;-67
2021/12/29 00:56:26;;;;;;;6.97;4.53;;;;;;;9.18;94.61;100153.06;5054940;28;20532;-67
2021/12/29 00:58:52;;;;;;;7.22;4.97;;;;;;;9.19;94.46;100153.06;5056602;28;20025;-67
2021/12/29 01:01:19;;;;;;;6.78;4.63;;;;;;;9.20;94.34;100169.75;5056247;28;20367;-67
2021/12/29 01:03:44;;;;;;;6.47;4.55;;;;;;;9.24;94.23;100168.91;5056309;28;20389;-67
2021/12/29 01:06:11;;;;;;;5.95;4.50;;;;;;;9.24;94.21;100182.97;5056396;28;20021;-67
2021/12/29 01:08:37;;;;;;;6.57;4.47;;;;;;;9.25;94.06;100189.16;5056331;28;20024;-67
2021/12/29 01:11:04;;;;;;;6.90;4.65;;;;;;;9.24;94.14;100190.00;5056324;28;20029;-67
2021/12/29 01:13:31;;;;;;;6.25;4.40;;;;;;;9.25;93.91;100191.78;5056146;28;20123;-67
2021/12/29 01:16:16;;;;;;;5.18;4.28;;;;;;;9.24;93.93;100193.50;5056140;28;20122;-68
2021/12/29 01:18:43;;;;;;;8.52;4.82;;;;;;;9.25;93.90;100197.94;5056342;28;20094;-67
2021/12/29 01:21:10;;;;;;;6.63;4.60;;;;;;;9.24;93.78;100209.31;5038209;28;20031;-67
2021/12/29 01:23:36;;;;;;;7.55;4.55;;;;;;;9.23;94.05;100204.94;5055915;28;20032;-67
2021/12/29 01:26:01;;;;;;;6.80;4.72;;;;;;;9.23;93.79;100217.22;5056017;28;20482;-67
2021/12/29 01:28:27;;;;;;;7.50;5.22;;;;;;;9.23;93.95;100225.16;5055778;28;20057;-68
2021/12/29 01:30:52;;;;;;;8.40;5.47;;;;;;;9.24;93.69;100232.16;5056086;28;20033;-67
2021/12/29 01:33:18;;;;;;;9.20;6.20;;;;;;;9.24;93.45;100234.81;5056006;28;20025;-68
2021/12/29 01:35:43;;;;;;;9.02;6.45;;;;;;;9.22;93.57;100231.28;5055825;28;20459;-67
2021/12/29 01:38:09;;;;;;;10.88;7.00;;;;;;;9.23;93.47;100256.78;5055749;28;20025;-67
2021/12/29 01:40:36;;;;;;;10.57;6.70;;;;;;;9.23;93.73;100262.06;5055648;28;20025;-67
2021/12/29 01:43:04;;;;;;;7.85;5.90;;;;;;;9.25;93.47;100260.31;5055565;28;20021;-67
2021/12/29 01:45:30;;;;;;;10.55;6.38;;;;;;;9.25;93.50;100269.09;5055573;28;20017;-67
2021/12/29 01:47:55;;;;;;;12.05;6.38;;;;;;;9.22;93.67;100276.09;5055465;28;20095;-67
2021/12/29 01:50:21;;;;;;;10.27;6.43;;;;;;;9.20;93.57;100281.34;5055343;28;20489;-67
2021/12/29 01:52:55;;;;;;;12.48;7.20;;;;;;;9.18;93.89;100269.94;5055378;28;20021;-67
2021/12/29 01:55:21;;;;;;;11.38;6.65;;;;;;;9.14;93.72;100273.41;5037520;28;20029;-67
2021/12/29 01:57:46;;;;;;;10.13;6.85;;;;;;;9.18;93.67;100279.59;5055166;28;20047;-66
2021/12/29 02:00:16;;;;;;;8.52;6.80;;;;;;;9.17;93.61;100291.91;5055189;28;20029;-67
2021/12/29 02:02:43;;;;;;;12.18;7.28;;;;;;;9.18;93.93;100291.00;5055163;28;20025;-67
2021/12/29 02:05:09;;;;;;;10.77;7.32;;;;;;;9.19;93.63;100299.81;5055243;28;20029;-66
2021/12/29 02:07:35;;;;;;;10.23;6.95;;;;;;;9.20;93.50;100291.91;5054977;28;20109;-67
2021/12/29 02:10:00;;;;;;;11.15;6.72;;;;;;;9.19;93.38;100303.31;5055092;28;20112;-66
2021/12/29 02:12:26;;;;;;;12.20;7.10;;;;;;;9.18;93.26;100301.56;5055182;28;20070;-66
2021/12/29 02:14:51;;;;;;;13.95;7.20;;;;;;;9.21;93.74;100313.91;5054865;28;20021;-68
2021/12/29 02:17:17;;;;;;;10.32;7.10;;;;;;;9.19;93.82;100312.97;5055026;28;20474;-67
2021/12/29 02:19:46;;;;;;;12.63;7.60;;;;;;;9.19;93.77;100310.34;5054899;28;20513;-66
2021/12/29 02:22:25;;;;;;;12.43;7.20;;;;;;;9.17;93.94;100312.97;5054915;28;20029;-67
2021/12/29 02:25:05;;;;;;;15.55;8.35;;;;;;;9.18;93.54;100313.88;5036899;28;20406;-67
2021/12/29 02:27:31;;;;;;;12.40;7.47;;;;;;;9.19;93.66;100319.13;5036711;28;20033;-68
2021/12/29 02:29:56;;;;;;;12.43;7.72;;;;;;;9.21;93.38;100317.41;5054707;28;20446;-67
2021/12/29 02:32:22;;;;;;;17.33;7.60;;;;;;;9.20;93.59;100315.63;5054760;28;20023;-67
2021/12/29 02:34:47;;;;;;;13.07;7.63;;;;;;;9.20;93.36;100323.53;5054680;28;20040;-67
2021/12/29 02:37:19;;;;;;;11.07;7.63;;;;;;;9.21;93.62;100319.16;5054551;28;20497;-68
2021/12/29 02:39:44;;;;;;;11.20;7.77;;;;;;;9.22;93.68;100326.19;5054820;28;20028;-67
2021/12/29 02:42:10;;;;;;;12.23;6.90;;;;;;;9.21;93.59;100327.06;5054402;28;20021;-68
2021/12/29 02:44:40;;;;;;;13.20;7.93;;;;;;;9.21;93.56;100332.34;5054687;28;20056;-67
2021/12/29 02:47:10;;;;;;;12.57;7.45;;;;;;;9.21;93.19;100335.88;5054482;28;20025;-67
2021/12/29 02:49:36;;;;;;;13.98;8.18;;;;;;;9.20;92.97;100330.56;5033132;28;20049;-67
2021/12/29 02:52:01;;;;;;;16.15;8.57;;;;;;;9.18;93.56;100327.91;5034478;28;20033;-66
2021/12/29 02:54:27;;;;;;;13.73;8.40;;;;;;;9.18;93.31;100329.69;5034360;28;20427;-67
2021/12/29 02:56:54;;;;;;;15.55;8.93;;;;;;;9.18;93.46;100325.28;5034431;28;20032;-67
2021/12/29 02:59:22;;;;;;;15.32;8.57;;;;;;;9.17;93.51;100330.56;5034336;28;20064;-67
2021/12/29 03:01:50;;;;;;;14.35;8.57;;;;;;;9.19;93.45;100334.06;5034439;28;20449;-67
2021/12/29 03:04:17;;;;;;;14.25;9.05;;;;;;;9.17;93.35;100333.19;5034206;28;20034;-68
2021/12/29 03:06:49;;;;;;;14.20;8.52;;;;;;;9.18;93.25;100338.47;5034149;28;20100;-67
2021/12/29 03:09:16;;;;;;;14.93;8.83;;;;;;;9.17;93.40;100341.09;5033958;28;20036;-68
2021/12/29 03:11:42;;;;;;;18.63;9.70;;;;;;;9.15;93.22;100359.50;5034067;28;20268;-67
2021/12/29 03:14:09;;;;;;;17.83;10.43;;;;;;;9.15;93.53;100363.91;5034234;28;20029;-67
2021/12/29 03:16:36;;;;;;;17.80;9.27;;;;;;;9.16;93.56;100363.03;5033965;28;20028;-66
2021/12/29 03:19:03;;;;;;;20.25;9.68;;;;;;;9.13;93.59;100369.19;5033363;28;20044;-67
2021/12/29 03:21:30;;;;;;;17.65;9.82;;;;;;;9.11;93.08;100367.38;5033754;28;20025;-67
2021/12/29 03:23:55;;;;;;;13.63;9.40;;;;;;;9.11;93.23;100367.38;5033594;28;20475;-67
2021/12/29 03:26:20;;;;;;;15.40;9.50;;;;;;;9.11;93.22;100370.03;5033854;28;20029;-66
2021/12/29 03:28:46;;;;;;;14.07;9.55;;;;;;;9.11;93.41;100381.44;5032432;28;20104;-67
2021/12/29 03:31:17;;;;;;;16.02;9.45;;;;;;;9.12;93.44;100399.06;5033793;28;20117;-67
2021/12/29 03:33:44;;;;;;;18.02;9.85;;;;;;;9.09;93.07;100399.00;5033886;28;20037;-67
2021/12/29 03:36:12;;;;;;;16.13;10.50;;;;;;;9.10;93.35;100403.41;5033634;28;20029;-67
2021/12/29 03:38:39;;;;;;;14.98;9.38;;;;;;;9.10;93.14;100408.69;5033572;28;20099;-67
2021/12/29 03:41:08;;;;;;;18.15;9.82;;;;;;;9.09;93.23;100406.91;5033519;28;20029;-67
2021/12/29 03:43:34;;;;;;;17.73;9.63;;;;;;;9.05;93.26;100407.75;5033275;28;20033;-67
2021/12/29 03:46:00;;;;;;;17.75;9.98;;;;;;;9.08;92.70;100404.25;5033449;28;20063;-66
2021/12/29 03:48:27;;;;;;;14.95;9.82;;;;;;;9.08;93.02;100418.34;5036924;28;20045;-67
2021/12/29 03:50:54;;;;;;;20.52;10.23;;;;;;;9.07;93.29;100416.53;5053136;28;20045;-67
2021/12/29 03:53:20;;;;;;;18.08;10.25;;;;;;;9.05;93.24;100423.56;5053196;28;20439;-67
2021/12/29 03:55:50;;;;;;;18.52;10.05;;;;;;;9.05;93.21;100426.22;5053285;28;20091;-67
2021/12/29 03:58:20;;;;;;;16.77;10.43;;;;;;;9.06;93.08;100430.59;5052888;28;20100;-67
2021/12/29 04:00:47;;;;;;;15.10;9.90;;;;;;;9.07;93.12;100437.63;5052981;28;20445;-67
2021/12/29 04:03:13;;;;;;;16.25;9.82;;;;;;;9.07;93.44;100439.38;5052942;28;20025;-66
2021/12/29 04:05:39;;;;;;;15.68;10.40;;;;;;;9.04;93.19;100442.91;5053207;28;20060;-67
2021/12/29 04:08:05;;;;;;;15.38;8.93;;;;;;;9.01;93.27;100441.09;5053139;28;20053;-67
2021/12/29 04:10:30;;;;;;;17.70;9.77;;;;;;;9.03;93.19;100438.47;5053281;28;20064;-67
2021/12/29 04:12:56;;;;;;;17.20;9.68;;;;;;;9.00;93.15;100441.97;5052903;28;20418;-67
2021/12/29 04:15:25;;;;;;;20.08;9.93;;;;;;;8.98;93.28;100443.69;5053044;28;20083;-68
2021/12/29 04:17:57;;;;;;;19.35;10.38;;;;;;;8.99;93.17;100444.56;5052954;28;20551;-67
2021/12/29 04:23:09;;;;;;;14.98;9.23;;;;;;;9.00;92.98;100454.28;5052850;28;20505;-67
2021/12/29 04:25:37;;;;;;;16.58;9.30;;;;;;;8.96;93.68;100461.25;5053023;28;20432;-67
2021/12/29 04:28:08;;;;;;;14.98;9.10;;;;;;;8.93;93.52;100458.56;5052792;28;20107;-67
2021/12/29 04:30:34;;;;;;;14.15;9.48;;;;;;;8.96;93.43;100457.75;5053689;28;20040;-67
2021/12/29 04:32:59;;;;;;;16.60;9.68;;;;;;;8.95;93.46;100466.47;5056936;28;20025;-66
2021/12/29 04:35:24;;;;;;;18.33;9.70;;;;;;;8.93;93.20;100469.13;5056714;28;20025;-67
2021/12/29 04:37:51;;;;;;;16.65;9.32;;;;;;;8.96;93.30;100477.06;5056985;28;20082;-67
2021/12/29 04:40:18;;;;;;;15.90;10.10;;;;;;;8.97;93.40;100480.56;5057041;28;20108;-67
2021/12/29 04:42:44;;;;;;;18.65;10.80;;;;;;;8.96;93.61;100482.34;5056445;28;20029;-67
2021/12/29 04:45:10;;;;;;;16.27;9.93;;;;;;;8.94;93.76;100484.03;5056722;28;20036;-67
2021/12/29 04:47:40;;;;;;;18.83;9.98;;;;;;;8.97;93.35;100496.38;5038778;28;20082;-67
2021/12/29 04:50:13;;;;;;;17.13;9.73;;;;;;;8.98;93.50;100492.88;5038341;28;20041;-67
2021/12/29 04:52:39;;;;;;;15.52;10.32;;;;;;;8.95;93.25;100493.75;5056546;28;20118;-67
2021/12/29 04:55:07;;;;;;;19.40;9.68;;;;;;;8.93;92.97;100497.22;5056512;28;20458;-67
2021/12/29 04:57:32;;;;;;;19.35;10.40;;;;;;;8.94;92.90;100510.41;5056325;28;20037;-67
2021/12/29 04:59:58;;;;;;;17.70;10.07;;;;;;;8.94;93.18;100506.88;5056377;28;20397;-67
2021/12/29 05:02:23;;;;;;;13.80;9.15;;;;;;;8.91;92.87;100509.50;5056280;28;20040;-68
2021/12/29 05:04:57;;;;;;;19.40;10.52;;;;;;;8.93;93.14;100519.19;5056104;28;20037;-67
2021/12/29 05:10:07;;;;;;;17.23;9.60;;;;;;;8.94;93.02;100517.44;5056477;28;20106;-67
2021/12/29 05:12:34;;;;;;;18.77;9.98;;;;;;;8.95;93.06;100513.91;5056048;28;20462;-67
2021/12/29 05:14:59;;;;;;;17.23;10.32;;;;;;;8.91;92.85;100510.38;5056221;28;20025;-67
2021/12/29 05:17:25;;;;;;;15.05;9.63;;;;;;;8.93;93.26;100516.53;5055945;28;20032;-67
2021/12/29 05:19:50;;;;;;;19.23;10.18;;;;;;;8.94;92.84;100518.31;5056148;28;20025;-67
2021/12/29 05:22:16;;;;;;;18.60;10.52;;;;;;;8.94;92.81;100520.06;5056182;28;20071;-66
2021/12/29 05:24:41;;;;;;;13.65;9.52;;;;;;;8.96;92.71;100515.72;5055845;28;20033;-66
2021/12/29 05:27:09;;;;;;;18.40;10.32;;;;;;;8.95;92.66;100521.81;5055918;28;20052;-67
2021/12/29 05:29:35;;;;;;;16.92;9.73;;;;;;;8.96;92.62;100520.97;5055927;28;20386;-66
2021/12/29 05:32:01;;;;;;;17.55;9.90;;;;;;;8.97;92.51;100512.19;5055692;28;20029;-67
2021/12/29 05:34:26;;;;;;;14.50;9.25;;;;;;;8.98;92.63;100533.28;5055783;28;20115;-66
2021/12/29 05:36:51;;;;;;;16.38;9.68;;;;;;;8.95;92.78;100522.72;5055729;28;20025;-66
2021/12/29 05:39:17;;;;;;;19.05;10.07;;;;;;;8.96;92.30;100529.75;5055633;28;20076;-66
2021/12/29 05:41:45;;;;;;;19.02;9.90;;;;;;;8.96;92.72;100532.41;5055075;28;20021;-67
2021/12/29 05:44:11;;;;;;;15.88;9.55;;;;;;;8.95;92.81;100533.28;5055503;28;20032;-67
2021/12/29 05:46:36;;;;;;;17.30;9.25;;;;;;;8.95;92.90;100535.91;5055492;28;20481;-66
2021/12/29 05:49:02;;;;;;;16.35;9.55;;;;;;;8.95;92.66;100537.63;5055210;28;20045;-66
2021/12/29 05:51:27;;;;;;;17.25;9.52;;;;;;;8.92;92.83;100534.97;5055691;28;20060;-67
2021/12/29 05:53:53;;;;;;;15.18;10.25;;;;;;;8.92;92.23;100534.97;5055383;28;20476;-67
2021/12/29 05:56:18;;;;;;;18.70;9.85;;;;;;;8.92;92.63;100533.22;5055374;28;20047;-67
2021/12/29 05:58:44;;;;;;;16.20;9.45;;;;;;;8.86;92.74;100524.34;5055308;28;20055;-67
2021/12/29 06:01:10;;;;;;;16.40;9.68;;;;;;;8.92;92.55;100538.50;5055516;28;20082;-66
2021/12/29 06:03:36;;;;;;;15.60;9.10;;;;;;;8.90;92.83;100532.31;5055073;28;20031;-66
2021/12/29 06:06:03;;;;;;;18.27;9.32;;;;;;;8.90;92.99;100537.56;5055096;28;20029;-67
2021/12/29 06:08:28;;;;;;;16.45;9.65;;;;;;;8.87;92.64;100529.66;5054887;28;20071;-67
2021/12/29 06:10:54;;;;;;;17.98;9.43;;;;;;;8.86;92.62;100541.03;5055112;28;20049;-66
2021/12/29 06:13:19;;;;;;;17.15;9.93;;;;;;;8.85;92.95;100554.19;5054958;28;20037;-66
2021/12/29 06:15:45;;;;;;;18.63;9.55;;;;;;;8.81;92.64;100553.28;5055008;28;20025;-65
2021/12/29 06:18:10;;;;;;;17.30;9.30;;;;;;;8.85;92.68;100562.09;5055045;28;20074;-66
2021/12/29 06:20:38;;;;;;;15.55;8.73;;;;;;;8.85;92.98;100568.25;5054797;28;20029;-66
2021/12/29 06:23:06;;;;;;;15.57;9.07;;;;;;;8.83;92.49;100567.38;5054685;28;20427;-66
2021/12/29 06:25:33;;;;;;;19.92;9.50;;;;;;;8.84;92.92;100569.13;5037328;28;20033;-67
2021/12/29 06:27:58;;;;;;;14.90;8.80;;;;;;;8.88;92.56;100580.59;5054825;28;20025;-66
2021/12/29 06:30:24;;;;;;;14.35;9.45;;;;;;;8.86;92.66;100582.31;5054732;28;20028;-66
2021/12/29 06:32:49;;;;;;;21.30;9.60;;;;;;;8.86;92.63;100580.56;5054671;28;20021;-66
2021/12/29 06:35:16;;;;;;;15.23;9.05;;;;;;;8.83;92.45;100577.03;5054421;28;20032;-66
2021/12/29 06:37:44;;;;;;;20.58;9.02;;;;;;;8.81;92.92;100578.72;5054538;28;20044;-66
2021/12/29 06:40:10;;;;;;;15.50;8.50;;;;;;;8.83;92.45;100588.44;5054662;28;20040;-66
2021/12/29 06:42:36;;;;;;;16.95;8.65;;;;;;;8.84;92.48;100581.41;5054432;28;20028;-66
2021/12/29 06:45:03;;;;;;;17.23;8.43;;;;;;;8.84;92.41;100592.84;5054470;28;20037;-66
2021/12/29 06:47:28;;;;;;;14.85;7.90;;;;;;;8.85;92.50;100585.81;5054159;28;20021;-66
2021/12/29 06:49:54;;;;;;;16.23;7.88;;;;;;;8.85;92.23;100593.72;5032428;28;20111;-67
2021/12/29 06:52:19;;;;;;;14.00;7.63;;;;;;;8.81;92.49;100584.88;5034289;28;20048;-67
2021/12/29 06:54:46;;;;;;;13.30;7.13;;;;;;;8.82;92.23;100591.91;5032169;28;20021;-67
2021/12/29 06:57:13;;;;;;;12.18;7.00;;;;;;;8.78;92.01;100595.41;5034249;28;20033;-67
2021/12/29 06:59:38;;;;;;;11.57;6.75;;;;;;;8.81;92.01;100600.69;5034375;28;20025;-66
2021/12/29 07:02:04;;;;;;;16.25;8.05;;;;;;;8.76;91.95;100599.75;5034244;28;20021;-67
2021/12/29 07:04:30;;;;;;;14.63;7.38;;;;;;;8.77;92.27;100597.13;5033854;28;20026;-67
2021/12/29 07:06:56;;;;;;;16.38;7.53;;;;;;;8.76;91.89;100600.63;5034175;28;20032;-66
2021/12/29 07:09:21;;;;;;;11.60;6.90;;;;;;;8.73;91.84;100597.06;5034124;28;20363;-68
2021/12/29 07:11:47;;;;;;;14.48;6.85;;;;;;;8.73;92.09;100599.69;5034066;28;20040;-67
2021/12/29 07:14:13;;;;;;;15.05;7.75;;;;;;;8.72;91.95;100609.34;5033896;28;20026;-68
2021/12/29 07:16:43;;;;;;;15.18;7.07;;;;;;;8.73;92.19;100615.50;5033889;28;20450;-65
2021/12/29 07:19:09;;;;;;;15.15;7.15;;;;;;;8.72;92.00;100619.88;5033706;28;20032;-64
2021/12/29 07:21:34;;;;;;;19.95;7.85;;;;;;;8.71;91.84;100633.94;5033950;28;20025;-67
2021/12/29 07:24:00;;;;;;;15.43;7.22;;;;;;;8.71;92.28;100625.16;5033756;28;20062;-68
2021/12/29 07:26:26;;;;;;;14.73;6.97;;;;;;;8.71;91.77;100631.28;5033770;28;20032;-67
2021/12/29 07:28:52;;;;;;;15.88;7.30;;;;;;;8.72;91.76;100626.91;5033663;28;20033;-67
2021/12/29 07:31:19;;;;;;;10.23;6.70;;;;;;;8.73;92.22;100634.81;5033768;28;20148;-67
2021/12/29 07:33:45;;;;;;;14.15;7.13;;;;;;;8.76;92.15;100653.31;5033601;28;20060;-67
2021/12/29 07:36:14;;;;;;;17.20;7.05;;;;;;;8.72;91.79;100654.13;5033410;28;20055;-68
2021/12/29 07:38:40;;;;;;;15.38;6.78;;;;;;;8.72;91.86;100651.50;5033558;28;20032;-67
2021/12/29 07:41:06;;;;;;;10.63;6.78;;;;;;;8.73;91.93;100655.91;5033597;28;20029;-67
2021/12/29 07:43:32;;;;;;;16.48;6.85;;;;;;;8.71;91.65;100657.63;5033444;28;20112;-67
2021/12/29 07:45:57;;;;;;;15.50;6.60;;;;;;;8.70;91.89;100655.88;5033494;28;20108;-67
2021/12/29 07:48:28;;;;;;;13.60;6.80;;;;;;;8.74;92.04;100659.44;5036096;28;20053;-67
2021/12/29 07:50:54;;;;;;;16.08;6.38;;;;;;;8.72;91.61;100654.13;5053085;28;20036;-67
2021/12/29 07:53:20;;;;;;;14.15;6.72;;;;;;;8.72;92.02;100650.63;5053228;28;20433;-66
2021/12/29 07:55:46;;;;;;;11.38;6.47;;;;;;;8.70;92.01;100647.97;5053303;28;20021;-67
2021/12/29 07:58:11;;;;;;;14.77;6.53;;;;;;;8.70;91.99;100655.88;5052846;28;20108;-67
2021/12/29 08:00:37;;;;;;;11.95;6.25;;;;;;;8.71;92.25;100655.00;5053078;28;20024;-67
2021/12/29 08:03:02;;;;;;;17.52;7.03;;;;;;;8.70;91.79;100650.59;5052674;28;20036;-67
2021/12/29 08:05:28;;;;;;;13.77;6.50;;;;;;;8.71;91.88;100652.38;5034229;28;20033;-67
2021/12/29 08:07:53;;;;;;;14.30;6.68;;;;;;;8.72;91.51;100661.16;5052658;28;20104;-68
2021/12/29 08:10:19;;;;;;;10.07;6.20;;;;;;;8.74;91.71;100655.06;5052459;28;20025;-68
2021/12/29 08:12:45;;;;;;;18.35;6.22;;;;;;;8.76;91.80;100663.84;5052510;28;20021;-68
2021/12/29 08:15:11;;;;;;;13.70;6.53;;;;;;;8.74;91.90;100668.22;5034665;28;20021;-68
2021/12/29 08:17:39;;;;;;;14.68;6.43;;;;;;;8.74;92.04;100670.88;5052487;28;20060;-68
2021/12/29 08:20:06;;;;;;;14.43;6.68;;;;;;;8.74;91.91;100662.09;5052419;28;20061;-68
2021/12/29 08:22:32;;;;;;;13.15;6.80;;;;;;;8.73;91.91;100661.16;5052398;28;20089;-67
2021/12/29 08:24:57;;;;;;;9.80;6.03;;;;;;;8.74;91.48;100665.59;5052365;28;20107;-67
2021/12/29 08:27:23;;;;;;;13.77;6.35;;;;;;;8.70;91.59;100655.00;5052228;28;20025;-65
2021/12/29 08:29:48;;;;;;;15.07;6.95;;;;;;;8.69;91.92;100663.75;5052500;28;20036;-64
2021/12/29 08:32:14;;;;;;;11.07;6.65;;;;;;;8.68;91.88;100667.25;5052100;28;20025;-68
2021/12/29 08:34:39;;;;;;;13.50;6.95;;;;;;;8.69;92.26;100667.28;5052858;28;20359;-67
2021/12/29 08:37:05;;;;;;;12.02;6.60;;;;;;;8.66;91.74;100664.59;5052074;28;20075;-68
2021/12/29 08:39:31;;;;;;;15.85;7.10;;;;;;;8.66;92.43;100668.97;5034350;28;20029;-65
2021/12/29 08:41:56;;;;;;;14.10;6.68;;;;;;;8.61;91.97;100661.00;5034364;28;20489;-66
2021/12/29 08:44:22;;;;;;;11.82;6.63;;;;;;;8.62;91.90;100667.16;5052085;28;20033;-65
2021/12/29 08:46:47;;;;;;;13.00;6.97;;;;;;;8.62;91.55;100664.53;5052257;28;20033;-64
2021/12/29 08:49:13;;;;;;;10.95;7.18;;;;;;;8.62;92.08;100678.56;5034164;28;20099;-65
2021/12/29 08:51:40;;;;;;;14.98;7.68;;;;;;;8.64;92.01;100676.84;5052021;28;20102;-65
2021/12/29 08:54:06;;;;;;;11.32;6.82;;;;;;;8.65;91.38;100680.34;5052213;28;20437;-65
2021/12/29 08:56:31;;;;;;;12.10;7.10;;;;;;;8.68;91.41;100672.50;5052651;28;20017;-66
2021/12/29 08:58:57;;;;;;;15.57;8.07;;;;;;;8.63;91.21;100669.81;5051914;28;20040;-65
2021/12/29 09:01:24;;;;;;;13.65;7.15;;;;;;;8.67;91.79;100673.38;5051861;28;20489;-68
2021/12/29 09:03:51;;;;;;;12.73;8.10;;;;;;;8.68;91.47;100676.03;5051771;28;20107;-67
2021/12/29 09:06:17;;;;;;;12.82;7.72;;;;;;;8.72;91.74;100682.22;5034057;28;20029;-73
2021/12/29 09:08:44;;;;;;;11.40;7.93;;;;;;;8.74;90.96;100680.53;5052319;28;20048;-67
2021/12/29 09:11:10;;;;;;;13.30;8.68;;;;;;;8.70;90.69;100674.31;5051947;28;20024;-67
2021/12/29 09:13:35;;;;;;;12.38;8.40;;;;;;;8.69;90.61;100672.56;5051869;28;20463;-67
2021/12/29 09:16:02;;;;;;;13.98;8.32;;;;;;;8.73;90.42;100671.72;5051750;28;20025;-68
2021/12/29 09:18:30;;;;;;;11.73;7.78;;;;;;;8.75;90.35;100674.38;5055545;28;20021;-67
2021/12/29 09:21:02;;;;;;;11.27;8.32;;;;;;;8.79;89.86;100678.84;5055327;28;20529;-67
2021/12/29 09:23:28;;;;;;;13.23;8.43;;;;;;;8.78;89.40;100672.69;5055569;28;20037;-65
2021/12/29 09:25:55;;;;;;;14.05;8.43;;;;;;;8.82;89.52;100668.31;5055519;28;20025;-65
2021/12/29 09:28:20;;;;;;;14.90;8.40;;;;;;;8.83;89.67;100670.13;5055310;28;20054;-65
2021/12/29 09:30:47;;;;;;;11.73;8.68;;;;;;;8.88;89.67;100657.00;5055449;28;20115;-65
2021/12/29 09:33:15;;;;;;;16.13;9.27;;;;;;;8.86;88.82;100651.69;5055292;28;20166;-64
2021/12/29 09:35:41;;;;;;;14.32;8.55;;;;;;;8.87;89.30;100656.13;5055230;28;20060;-64
2021/12/29 09:38:08;;;;;;;12.35;7.97;;;;;;;8.91;89.07;100652.69;5055248;28;20490;-65
2021/12/29 09:40:34;;;;;;;13.30;8.48;;;;;;;8.96;89.39;100644.84;5055250;28;20048;-64
2021/12/29 09:43:10;;;;;;;11.60;8.27;;;;;;;9.14;89.24;100658.25;5037130;28;20021;-64
2021/12/29 09:45:37;;;;;;;14.18;8.80;;;;;;;9.38;89.31;100654.16;5055252;28;20138;-64
2021/12/29 09:48:03;;;;;;;12.80;8.35;;;;;;;9.56;87.86;100657.03;5054697;28;20029;-65
2021/12/29 09:50:29;;;;;;;15.48;7.93;;;;;;;9.62;87.02;100654.44;5055010;28;20029;-65
2021/12/29 09:53:01;;;;;;;16.77;7.72;;;;;;;9.54;86.56;100656.13;5054832;28;20134;-63
2021/12/29 09:55:27;;;;;;;11.65;7.10;;;;;;;9.47;86.49;100655.16;5054945;28;20033;-65
2021/12/29 09:57:56;;;;;;;14.48;7.25;;;;;;;9.38;86.75;100639.25;5054921;28;20151;-65
2021/12/29 10:00:56;;;;;;;9.35;6.43;;;;;;;9.37;87.69;100647.13;5055014;28;20179;-64
2021/12/29 10:03:24;;;;;;;13.30;6.90;;;;;;;9.34;87.23;100655.88;4954572;29;20043;-65
2021/12/29 10:05:56;;;;;;;11.02;6.50;;;;;;;9.32;87.70;100644.41;4954511;28;20047;-68
2021/12/29 10:08:31;;;;;;;11.75;6.40;;;;;;;9.33;88.01;100646.19;4954700;29;20031;-64
2021/12/29 10:11:10;;;;;;;11.10;5.80;;;;;;;9.38;87.57;100651.50;4954597;29;20118;-65
2021/12/29 10:13:39;;;;;;;13.60;6.32;;;;;;;9.42;87.31;100661.25;4954296;29;20039;-66
2021/12/29 10:16:07;;;;;;;10.68;5.95;;;;;;;9.51;87.25;100658.75;4954352;29;20039;-65
2021/12/29 10:18:37;;;;;;;12.02;6.32;;;;;;;9.64;88.12;100657.13;4954283;29;20046;-65
2021/12/29 10:21:09;;;;;;;16.00;6.05;;;;;;;9.70;86.65;100647.50;4954243;29;20481;-65
2021/12/29 10:23:36;;;;;;;;;;;;;;;9.76;87.34;100647.59;4954764;29;20424;-66
2021/12/29 10:26:08;;;;;;;12.68;5.57;;;;;;;9.68;86.39;100646.63;4954267;29;19996;-66
2021/12/29 10:28:35;;;;;;;10.30;5.95;;;;;;;9.66;86.69;100640.44;4954301;28;20547;-66
2021/12/29 10:31:16;;;;;;;11.20;5.65;;;;;;;9.68;87.09;100635.19;4953919;29;20051;-66
2021/12/29 10:33:43;;;;;;;8.30;6.03;;;;;;;9.65;87.09;100625.47;4954151;29;20030;-65
2021/12/29 10:36:20;;;;;;;14.43;5.85;;;;;;;9.63;87.18;100618.41;4953998;29;20437;-66
2021/12/29 10:38:50;;;;;;;9.48;5.15;;;;;;;9.54;86.79;100609.50;4998332;28;20570;-65
2021/12/29 10:41:16;;;;;;;11.98;5.30;;;;;;;9.50;87.20;100609.47;5053956;28;20116;-66
2021/12/29 10:44:00;;;;;;;12.60;5.38;;;;;;;9.46;86.96;100615.56;5053882;28;20108;-66
2021/12/29 10:46:27;;;;;;;9.48;5.00;;;;;;;9.40;87.47;100620.78;5054161;28;20429;-66
2021/12/29 10:48:54;;;;;;;8.90;4.60;;;;;;;9.39;87.33;100624.31;5053801;28;20137;-65
2021/12/29 10:51:30;;;;;;;12.48;4.57;;;;;;;9.38;87.46;100631.34;5053787;28;20029;-66
2021/12/29 10:54:07;;;;;;;12.27;4.97;;;;;;;9.37;87.85;100619.00;5053853;28;20063;-66
2021/12/29 10:56:33;;;;;;;11.57;4.60;;;;;;;9.38;87.41;100602.31;5053970;28;20107;-65
2021/12/29 10:58:59;;;;;;;10.63;4.97;;;;;;;9.37;87.42;100610.19;5053790;28;20029;-67
2021/12/29 11:01:25;;;;;;;11.85;4.82;;;;;;;9.39;87.78;100624.31;5054009;28;20072;-65
2021/12/29 11:03:57;;;;;;;10.20;4.80;;;;;;;9.38;88.11;100626.06;5053317;28;20686;-65
2021/12/29 11:06:25;;;;;;;14.00;5.00;;;;;;;9.38;88.24;100626.06;5053715;28;20390;-67
2021/12/29 11:08:58;;;;;;;11.43;5.10;;;;;;;9.40;88.22;100639.25;5053540;28;20529;-68
2021/12/29 11:11:37;;;;;;;11.73;4.70;;;;;;;9.37;88.16;100640.09;5053615;28;20443;-67
2021/12/29 11:14:16;;;;;;;13.43;5.03;;;;;;;9.35;87.91;100638.31;5053331;28;20036;-66
2021/12/29 11:16:44;;;;;;;12.98;4.75;;;;;;;9.32;88.21;100628.59;5035744;28;20419;-65
2021/12/29 11:19:18;;;;;;;11.93;4.65;;;;;;;9.32;88.10;100639.16;5034064;28;20030;-65
2021/12/29 11:21:44;;;;;;;11.40;4.60;;;;;;;9.34;88.36;100644.47;5018581;28;20483;-65
2021/12/29 11:24:20;;;;;;;16.58;4.50;;;;;;;9.39;88.02;100637.50;5015447;28;20036;-65
2021/12/29 11:26:48;;;;;;;11.77;5.05;;;;;;;9.39;88.09;100626.94;5033042;28;20542;-65
2021/12/29 11:29:20;;;;;;;14.20;4.82;;;;;;;9.36;88.11;100629.53;5033067;28;20111;-65
2021/12/29 11:31:56;;;;;;;11.35;4.80;;;;;;;9.37;88.05;100629.53;5033340;28;20390;-66